Coin, Iowa
Current Conditions -  °F | °C
As of 11:55 PM on Thursday 30 Oct 2014 (Local Time) from KICL Reporting Station
Overcast Overcast  
Wind Chill: 42°   Ceiling: 2200
Heat Index: 48°   Visibility: 10mi
Dew Point: 39°   Wind: 18mph
Humidity: 71%   Direction: 360°N
Pressure: 30.3"   Gusts: 29mph
Location:  40.65°N, 95.23°W
Report Text: KICL 310455Z AUTO 36016G25KT 10SM OVC022 09/04 A3030 RMK AO2
Loading
Personal Weather Stations






























Interactive Weather Map New forecast layout! Learn more

10-Day Weather Forecast

Advertisements
Track Severe Weather on mobile